UKDE/OZH METAR and TAF weather

Enter ICAO airport designator
Station Type Date Time Source
UKDE METAR 2020/04/06 10:30 UTC NOAA

UKDE 061030Z 32008MPS CAVOK 12/M08 Q1035 R02R/090070 NOSIG


Station Type Date Time Source
UKDE Decoded METAR 2020/04/06 10:30 UTC NOAA

Zaporizhzhia / Mokraya, Ukraine (UKDE) 47-52-02N 035-18-59E
Apr 06, 2020 - 06:30 AM EDT / 2020.04.06 1030 UTC
Wind: from the NW (320 degrees) at 18 MPH (16 KT):0
Visibility: greater than 7 mile(s):0
Temperature: 53 F (12 C)
Dew Point: 17 F (-8 C)
Relative Humidity: 23%
Pressure (altimeter): 30.56 in. Hg (1035 hPa)
ob: UKDE 061030Z 32008MPS CAVOK 12/M08 Q1035 R02R/090070 NOSIG
cycle: 10

Station Type Date Time Source
UKDE TAF 2019/12/20 16:09 UTC NOAA

TAF
AMD TAF
AMD UKDE 201606Z 2016/2124 09003MPS 0100 FZFG VV001 TXM01/2016Z TNM03/2124Z
TEMPO 2018/2021 1000 BR OVC003

Example: see airport list